Time;durP1;ratioP1;P1;durP2;ratioP2;P2;SDS_P1;SDS_P2;PMS_P1;PMS_P2;Temp;Humidity;BMP_temperature;BMP_pressure;BME280_temperature;BME280_humidity;BME280_pressure;Samples;Min_cycle;Max_cycle;Signal;HPM_P1;HPM_P2
2021/05/31 05:10:47;;;;;;;7.20;4.75;;;;;;;20.93;61.48;100596.75;1747426;81;21195;-67
2021/05/31 05:13:20;;;;;;;6.20;5.55;;;;;;;21.23;60.37;100590.20;1764444;81;21292;-64
2021/05/31 05:20:06;;;;;;;8.23;5.97;;;;;;;21.48;59.27;100591.36;1764215;81;21803;-62
2021/05/31 05:22:40;;;;;;;6.30;5.45;;;;;;;21.59;58.59;100593.95;1747892;82;21589;-61
2021/05/31 05:25:13;;;;;;;7.27;5.77;;;;;;;21.61;58.10;100594.59;1764255;81;21221;-63
2021/05/31 05:27:54;;;;;;;6.83;6.12;;;;;;;21.61;57.87;100597.27;1747918;82;21214;-64
2021/05/31 05:30:29;;;;;;;6.92;5.67;;;;;;;21.62;57.67;100593.56;1762897;81;21202;-64
2021/05/31 05:33:03;;;;;;;6.03;5.40;;;;;;;21.68;57.38;100596.78;1747816;82;21497;-65
2021/05/31 05:35:52;;;;;;;7.28;6.08;;;;;;;21.84;56.85;100594.25;1763872;81;22009;-64
2021/05/31 05:48:55;;;;;;;7.25;5.28;;;;;;;23.21;52.41;100597.53;1748605;82;21302;-64
2021/05/31 05:51:28;;;;;;;7.37;5.12;;;;;;;23.27;51.91;100591.33;1763722;81;21197;-66
2021/05/31 05:54:02;;;;;;;6.92;4.92;;;;;;;23.19;51.66;100600.39;1748014;82;22151;-68
2021/05/31 05:56:36;;;;;;;8.15;4.55;;;;;;;23.09;52.05;100605.37;1740079;81;21201;-64
2021/05/31 05:59:09;;;;;;;4.70;4.30;;;;;;;23.06;52.34;100608.95;1734074;82;21184;-66
2021/05/31 06:01:44;;;;;;;5.45;4.72;;;;;;;23.10;52.07;100611.50;1733073;82;21212;-64
2021/05/31 06:08:28;;;;;;;5.62;4.20;;;;;;;23.56;50.79;100614.08;1711716;83;21194;-64
2021/05/31 06:11:01;;;;;;;6.03;5.28;;;;;;;23.73;49.80;100617.92;1768762;80;21311;-64
2021/05/31 06:13:39;;;;;;;6.53;3.95;;;;;;;23.85;49.23;100615.70;1757794;81;21577;-67
2021/05/31 06:16:10;;;;;;;4.28;3.87;;;;;;;24.66;47.78;100616.63;1768119;81;21586;-68
2021/05/31 06:18:45;;;;;;;4.22;3.83;;;;;;;25.92;45.68;100615.08;1767981;81;21322;-68
2021/05/31 06:21:19;;;;;;;3.90;3.60;;;;;;;27.02;43.03;100613.59;1768106;81;21205;-66
2021/05/31 06:23:54;;;;;;;4.45;3.95;;;;;;;27.44;41.31;100612.11;1768150;81;21481;-70
2021/05/31 06:26:27;;;;;;;4.03;3.62;;;;;;;27.44;40.65;100613.45;1767673;81;22063;-70
2021/05/31 06:29:01;;;;;;;3.98;3.58;;;;;;;27.78;39.68;100613.86;1768452;81;21177;-72
2021/05/31 06:31:34;;;;;;;5.35;3.33;;;;;;;28.33;39.44;100610.05;1767911;81;21554;-70
2021/05/31 06:34:07;;;;;;;;;;;;;;;28.56;38.33;100613.96;1772385;81;21371;-75
2021/05/31 06:36:41;;;;;;;3.40;3.10;;;;;;;28.58;37.99;100614.00;1767674;81;20268;-71
2021/05/31 06:39:14;;;;;;;3.30;3.00;;;;;;;28.90;36.69;100618.28;1768720;81;21281;-67
2021/05/31 06:41:48;;;;;;;3.67;3.37;;;;;;;29.35;36.34;100615.45;1767853;81;21264;-72
2021/05/31 06:44:20;;;;;;;;;;;;;;;29.67;35.76;100609.63;1770930;81;21292;-73
2021/05/31 06:46:53;;;;;;;3.37;2.95;;;;;;;29.89;35.09;100610.45;1767709;81;20268;-68
2021/05/31 06:49:27;;;;;;;5.60;3.08;;;;;;;29.70;35.10;100615.05;1768136;81;21292;-70
2021/05/31 06:52:04;;;;;;;10.35;3.33;;;;;;;29.34;35.24;100614.63;1767994;81;21365;-74
2021/05/31 06:54:37;;;;;;;3.25;2.92;;;;;;;29.58;34.72;100610.33;1768268;81;21670;-69
2021/05/31 06:57:11;;;;;;;3.45;3.10;;;;;;;29.75;34.34;100601.62;1766715;79;21605;-70
2021/05/31 06:59:43;;;;;;;;;;;;;;;29.77;34.41;100600.34;1770819;81;21343;-64
2021/05/31 07:02:16;;;;;;;3.85;3.45;;;;;;;29.48;34.92;100607.50;1767805;81;20265;-65
2021/05/31 07:04:50;;;;;;;5.53;3.55;;;;;;;28.90;35.74;100610.75;1768582;81;21280;-66
2021/05/31 07:07:23;;;;;;;3.30;3.00;;;;;;;28.48;36.71;100607.09;1767527;81;21201;-65
2021/05/31 07:09:57;;;;;;;3.58;3.27;;;;;;;28.11;37.09;100607.24;1765445;80;21197;-64
2021/05/31 07:12:31;;;;;;;3.50;3.20;;;;;;;27.88;37.71;100605.47;1766042;80;21205;-67
2021/05/31 07:15:06;;;;;;;4.85;2.92;;;;;;;27.76;38.10;100614.62;1766388;81;21894;-63
2021/05/31 07:17:42;;;;;;;3.25;2.95;;;;;;;27.82;37.85;100606.96;1766120;81;21231;-62
2021/05/31 07:20:16;;;;;;;3.40;3.10;;;;;;;27.90;37.57;100603.87;1766332;80;21455;-64
2021/05/31 07:22:49;;;;;;;4.03;3.52;;;;;;;27.83;38.01;100613.44;1765859;81;21552;-67
2021/05/31 07:25:22;;;;;;;3.83;3.12;;;;;;;27.59;38.47;100619.95;1766218;81;21146;-65
2021/05/31 07:27:57;;;;;;;3.92;2.87;;;;;;;27.29;38.73;100608.53;1765830;81;22153;-64
2021/05/31 07:30:31;;;;;;;5.47;3.00;;;;;;;27.00;39.27;100609.50;1766276;81;21188;-68
2021/05/31 07:33:06;;;;;;;5.53;3.20;;;;;;;26.87;39.51;100614.58;1765784;81;21212;-63
2021/05/31 07:35:39;;;;;;;4.12;3.25;;;;;;;26.86;39.27;100616.98;1772370;79;22065;-66
2021/05/31 07:38:13;;;;;;;6.22;4.00;;;;;;;26.92;39.27;100620.06;1793809;80;22104;-66
2021/05/31 07:40:46;;;;;;;3.30;3.00;;;;;;;27.24;38.58;100617.83;1794439;80;21507;-66
2021/05/31 07:43:19;;;;;;;3.80;3.50;;;;;;;27.86;37.95;100613.48;1772567;79;22042;-65
2021/05/31 07:45:53;;;;;;;3.87;2.77;;;;;;;28.63;37.14;100616.81;1752767;81;21612;-67
2021/05/31 07:48:26;;;;;;;3.52;3.22;;;;;;;29.04;36.02;100625.51;1752400;81;21199;-66
2021/05/31 07:51:15;;;;;;;2.67;2.40;;;;;;;29.12;35.45;100621.84;1763127;79;21447;-66
2021/05/31 07:53:34;;;;;;;3.15;2.85;;;;;;;28.96;35.43;100628.61;1791068;80;21362;-70
2021/05/31 07:56:09;;;;;;;3.10;2.90;;;;;;;28.57;35.75;100625.83;1793970;80;21300;-69
2021/05/31 07:58:43;;;;;;;3.35;3.00;;;;;;;28.10;36.44;100623.65;1793845;80;21451;-66
2021/05/31 08:01:16;;;;;;;4.33;3.15;;;;;;;27.72;37.19;100632.31;1794507;80;21326;-69
2021/05/31 08:03:49;;;;;;;3.08;2.72;;;;;;;27.42;37.70;100627.67;1794224;80;21192;-67
2021/05/31 08:06:22;;;;;;;3.33;3.02;;;;;;;27.52;37.46;100625.17;1794467;80;21173;-65
2021/05/31 08:08:55;;;;;;;2.80;2.47;;;;;;;28.10;37.19;100617.74;1793950;80;21197;-68
2021/05/31 08:11:29;;;;;;;3.77;2.45;;;;;;;28.89;34.92;100615.84;1771937;79;21327;-67
2021/05/31 08:14:03;;;;;;;2.80;2.60;;;;;;;29.65;33.76;100619.86;1792849;79;21228;-67
2021/05/31 08:16:36;;;;;;;2.90;2.58;;;;;;;30.21;33.19;100615.09;1794605;80;21283;-71
2021/05/31 08:19:10;;;;;;;7.62;2.92;;;;;;;30.77;32.17;100615.02;1793824;80;21369;-68
2021/05/31 08:21:45;;;;;;;2.20;2.00;;;;;;;31.29;31.26;100614.55;1793424;80;21172;-62
2021/05/31 08:24:19;;;;;;;4.75;2.62;;;;;;;31.33;30.89;100616.20;1793878;80;21189;-69
2021/05/31 08:26:52;;;;;;;2.55;2.30;;;;;;;31.10;31.26;100618.25;1795030;80;21295;-67
2021/05/31 08:29:25;;;;;;;2.52;2.30;;;;;;;30.73;31.83;100617.45;1793646;80;21204;-65
2021/05/31 08:31:58;;;;;;;3.12;2.30;;;;;;;30.22;32.73;100618.05;1794502;80;21299;-66
2021/05/31 08:34:32;;;;;;;4.25;2.30;;;;;;;29.67;33.84;100621.77;1793703;80;22183;-73
2021/05/31 08:37:05;;;;;;;3.02;2.60;;;;;;;29.21;34.74;100624.42;1772394;80;21589;-65
2021/05/31 08:39:38;;;;;;;;;;;;;;;28.75;35.94;100630.72;1796164;80;21204;-66
2021/05/31 08:42:12;;;;;;;2.55;2.10;;;;;;;28.52;36.51;100631.13;1794498;80;20670;-67
2021/05/31 08:44:45;;;;;;;2.62;1.92;;;;;;;28.38;36.68;100620.39;1794051;80;21288;-64
2021/05/31 08:47:19;;;;;;;5.05;2.12;;;;;;;28.35;36.53;100625.46;1794867;80;21166;-65
2021/05/31 08:49:53;;;;;;;1.98;1.82;;;;;;;28.28;36.33;100630.19;1793525;80;21181;-65
2021/05/31 08:56:36;;;;;;;2.85;2.08;;;;;;;28.35;36.89;100640.27;1755943;80;21192;-66
2021/05/31 09:03:20;;;;;;;2.20;1.95;;;;;;;28.58;36.83;100634.20;1753019;81;21251;-70
2021/05/31 09:05:56;;;;;;;2.37;2.17;;;;;;;28.36;36.64;100638.67;1751757;81;21566;-68
2021/05/31 09:08:29;;;;;;;3.20;2.00;;;;;;;28.21;36.96;100638.91;1752849;81;21309;-67
2021/05/31 09:11:06;;;;;;;2.83;2.22;;;;;;;28.13;37.49;100637.45;1751753;81;21454;-68
2021/05/31 09:13:43;;;;;;;3.37;1.95;;;;;;;28.15;37.46;100638.55;1752792;81;22088;-70
2021/05/31 09:16:20;;;;;;;2.55;2.08;;;;;;;28.19;36.70;100630.27;1752853;81;21226;-64
2021/05/31 09:19:00;;;;;;;3.67;1.82;;;;;;;28.32;35.95;100634.02;1752891;81;21290;-65
2021/05/31 09:21:36;;;;;;;9.93;2.50;;;;;;;28.55;36.47;100631.99;1752284;81;21168;-63
2021/05/31 09:24:22;;;;;;;5.72;4.45;;;;;;;28.62;35.75;100634.55;1752917;81;21279;-62
2021/05/31 09:27:01;;;;;;;3.08;2.17;;;;;;;28.67;34.94;100630.59;1752924;81;21347;-67
2021/05/31 09:33:39;;;;;;;3.22;1.75;;;;;;;28.36;35.74;100632.46;1753044;81;22032;-72
2021/05/31 09:36:12;;;;;;;2.90;1.95;;;;;;;27.93;36.42;100631.65;1751918;81;21999;-65
2021/05/31 09:38:49;;;;;;;;;;;;;;;27.88;36.74;100632.38;1755561;81;21317;-61
2021/05/31 09:45:33;;;;;;;2.27;1.98;;;;;;;27.66;36.85;100632.73;1752195;81;21282;-61
2021/05/31 09:48:07;;;;;;;2.22;1.72;;;;;;;27.57;37.07;100626.09;1752833;81;21430;-67
2021/05/31 09:50:40;;;;;;;4.08;1.50;;;;;;;27.51;36.75;100627.06;1751957;81;21253;-64
2021/05/31 09:53:13;;;;;;;2.90;1.77;;;;;;;27.58;37.74;100625.58;1753046;81;21550;-67
2021/05/31 09:55:49;;;;;;;1.57;1.47;;;;;;;27.58;38.18;100633.13;1752249;81;21309;-67
2021/05/31 09:58:24;;;;;;;2.40;1.80;;;;;;;27.60;38.45;100635.05;1753005;81;21298;-65
2021/05/31 10:01:00;;;;;;;1.80;1.50;;;;;;;27.67;38.81;100634.90;1733683;81;21295;-66
2021/05/31 10:03:44;;;;;;;4.70;1.52;;;;;;;27.76;38.35;100628.91;1752819;81;21242;-66
2021/05/31 10:06:22;;;;;;;2.37;2.00;;;;;;;27.77;37.77;100632.42;1751919;81;21170;-66
2021/05/31 10:08:50;;;;;;;3.00;1.72;;;;;;;27.56;37.34;100635.20;1752991;81;21298;-63
2021/05/31 10:11:23;;;;;;;3.15;2.00;;;;;;;27.30;37.93;100642.41;1751937;81;21204;-65
2021/05/31 10:13:57;;;;;;;3.62;1.98;;;;;;;27.02;38.41;100648.52;1751844;81;21341;-60
2021/05/31 10:16:33;;;;;;;3.33;1.70;;;;;;;26.81;38.17;100639.70;1751980;81;21351;-65
2021/05/31 10:19:08;;;;;;;3.40;1.70;;;;;;;26.81;38.17;100639.70;1752897;81;22121;-68
2021/05/31 10:21:41;;;;;;;8.90;2.10;;;;;;;26.71;38.30;100629.50;1751318;81;21317;-61
2021/05/31 10:24:14;;;;;;;2.47;1.87;;;;;;;26.60;38.67;100637.55;1753009;81;21172;-65
2021/05/31 10:26:48;;;;;;;5.80;2.02;;;;;;;26.57;38.30;100631.28;1752161;81;21310;-68
2021/05/31 10:29:21;;;;;;;4.15;1.95;;;;;;;26.57;38.68;100629.42;1753873;81;21565;-68
2021/05/31 10:31:54;;;;;;;2.20;1.80;;;;;;;26.53;38.61;100631.47;1751801;81;21326;-69
2021/05/31 10:34:27;;;;;;;3.12;2.00;;;;;;;26.47;38.70;100621.11;1753312;81;21287;-65
2021/05/31 10:37:04;;;;;;;3.00;1.87;;;;;;;26.49;39.18;100628.92;1752043;81;21322;-67
2021/05/31 10:39:38;;;;;;;2.58;1.87;;;;;;;26.44;38.65;100620.77;1734377;81;21322;-63
2021/05/31 10:42:11;;;;;;;2.83;2.00;;;;;;;26.42;38.56;100625.52;1751685;81;21200;-66
2021/05/31 10:44:44;;;;;;;2.00;1.90;;;;;;;26.37;38.59;100630.25;1753005;81;21716;-70
2021/05/31 10:47:20;;;;;;;;;;;;;;;26.24;38.72;100628.30;1754531;81;21294;-65
2021/05/31 10:50:01;;;;;;;3.52;1.77;;;;;;;26.00;39.29;100630.05;1752959;81;20335;-70
2021/05/31 10:52:33;;;;;;;2.50;1.70;;;;;;;26.01;39.37;100633.01;1751997;81;21218;-63
2021/05/31 10:55:10;;;;;;;;;;;;;;;26.01;39.37;100633.01;1755559;81;21339;-65
2021/05/31 10:57:46;;;;;;;2.58;1.75;;;;;;;25.94;39.66;100626.92;1751760;81;20322;-65
2021/05/31 11:00:32;;;;;;;3.47;1.70;;;;;;;25.72;40.04;100629.81;1752840;81;22155;-61
2021/05/31 11:03:07;;;;;;;3.22;1.87;;;;;;;25.49;40.63;100630.48;1732631;81;21466;-65
2021/05/31 11:05:40;;;;;;;2.47;1.72;;;;;;;25.39;40.58;100624.27;1752802;81;21465;-62
2021/05/31 11:08:15;;;;;;;2.45;1.95;;;;;;;25.33;40.59;100620.33;1751684;81;21557;-66
2021/05/31 11:10:55;;;;;;;3.85;1.98;;;;;;;25.05;41.63;100610.64;1734565;81;21359;-63
2021/05/31 11:13:29;;;;;;;1.98;1.55;;;;;;;25.05;41.63;100610.64;1752639;81;21310;-62
2021/05/31 11:16:08;;;;;;;;;;;;;;;25.14;41.25;100622.19;1755328;81;21283;-60
2021/05/31 11:18:42;;;;;;;5.42;2.22;;;;;;;25.17;40.85;100615.02;1752896;81;20387;-68
2021/05/31 11:21:32;;;;;;;4.10;1.80;;;;;;;25.05;41.58;100617.34;1752311;81;21188;-63
2021/05/31 11:24:08;;;;;;;2.17;1.87;;;;;;;24.95;42.05;100615.17;1752849;81;21224;-62
2021/05/31 11:26:42;;;;;;;2.87;1.62;;;;;;;24.96;42.51;100612.77;1752650;81;21357;-65
2021/05/31 11:29:15;;;;;;;2.87;1.98;;;;;;;24.93;42.04;100610.55;1752814;81;22032;-66
2021/05/31 11:31:49;;;;;;;6.10;1.80;;;;;;;24.91;42.22;100607.80;1752357;81;22152;-62
2021/05/31 11:34:24;;;;;;;6.80;2.00;;;;;;;24.84;41.88;100619.89;1752975;81;21294;-66
2021/05/31 11:36:58;;;;;;;5.35;2.20;;;;;;;24.83;41.75;100615.59;1752640;81;21314;-63
2021/05/31 11:39:35;;;;;;;3.83;2.00;;;;;;;24.77;42.18;100612.44;1711680;81;21299;-64
2021/05/31 11:42:09;;;;;;;3.90;2.00;;;;;;;24.72;42.24;100606.88;1752076;81;21326;-64
2021/05/31 11:44:45;;;;;;;3.20;1.90;;;;;;;24.58;42.11;100610.20;1734427;81;21633;-65
2021/05/31 11:47:24;;;;;;;2.50;1.80;;;;;;;24.45;42.75;100608.98;1752852;81;21582;-63
2021/05/31 11:49:59;;;;;;;4.97;2.58;;;;;;;24.34;42.97;100609.66;1752902;81;22064;-61
2021/05/31 11:52:32;;;;;;;28.65;3.35;;;;;;;24.33;42.17;100606.70;1758132;81;21346;-61
2021/05/31 11:55:06;;;;;;;3.87;1.92;;;;;;;24.31;42.02;100605.28;1768005;79;21304;-59
2021/05/31 11:57:40;;;;;;;5.08;1.60;;;;;;;24.19;42.65;100608.34;1767579;81;21303;-61
2021/05/31 12:00:17;;;;;;;9.80;2.90;;;;;;;24.05;43.21;100611.05;1767752;81;21921;-59
2021/05/31 12:02:51;;;;;;;2.00;1.80;;;;;;;23.97;44.38;100607.31;1766916;81;21304;-63
2021/05/31 12:05:33;;;;;;;2.00;1.80;;;;;;;24.03;44.10;100610.45;1767880;81;22103;-64
2021/05/31 12:08:13;;;;;;;1.95;1.75;;;;;;;24.05;43.94;100614.24;1767152;81;21316;-62
2021/05/31 12:10:47;;;;;;;3.15;1.70;;;;;;;24.02;43.88;100603.99;1767897;81;21300;-61
2021/05/31 12:13:30;;;;;;;1.98;1.27;;;;;;;23.93;43.80;100611.43;1766837;81;21500;-64
2021/05/31 12:16:14;;;;;;;2.90;1.95;;;;;;;23.90;43.77;100615.06;1766686;81;21217;-61
2021/05/31 12:18:48;;;;;;;3.12;1.37;;;;;;;23.78;43.79;100608.75;1766946;81;21205;-59
2021/05/31 12:21:21;;;;;;;4.20;1.32;;;;;;;23.68;44.45;100607.04;1767991;81;21945;-61
2021/05/31 12:23:55;;;;;;;1.70;1.40;;;;;;;23.67;44.21;100605.42;1766597;81;21573;-61
2021/05/31 12:26:28;;;;;;;3.17;1.70;;;;;;;23.68;44.18;100608.38;1768118;81;22104;-64
2021/05/31 12:29:03;;;;;;;3.60;1.70;;;;;;;23.69;44.28;100608.16;1767118;81;22193;-65
2021/05/31 12:31:36;;;;;;;1.62;1.40;;;;;;;23.74;44.48;100608.88;1767835;81;21292;-66
2021/05/31 12:34:11;;;;;;;1.55;1.32;;;;;;;23.74;43.84;100615.56;1766675;81;22107;-65
2021/05/31 12:36:44;;;;;;;3.08;1.50;;;;;;;23.65;43.75;100614.14;1767863;81;21307;-66
2021/05/31 12:39:18;;;;;;;2.58;1.37;;;;;;;23.67;44.14;100612.90;1767237;81;21263;-63
2021/05/31 12:41:51;;;;;;;2.70;1.37;;;;;;;23.76;44.24;100606.81;1760684;81;21248;-67
2021/05/31 12:44:30;;;;;;;6.37;1.65;;;;;;;23.87;43.61;100616.31;1724536;83;21295;-65
2021/05/31 12:51:14;;;;;;;1.55;1.12;;;;;;;24.00;43.64;100615.43;1726049;83;21265;-66
2021/05/31 12:53:48;;;;;;;1.50;1.10;;;;;;;24.20;43.03;100609.97;1725165;83;21342;-67
2021/05/31 12:56:22;;;;;;;1.77;1.12;;;;;;;24.23;42.61;100610.88;1725426;82;21574;-65
2021/05/31 12:59:09;;;;;;;3.12;1.50;;;;;;;24.23;42.59;100606.87;1722714;83;21307;-65
2021/05/31 13:01:46;;;;;;;1.50;1.30;;;;;;;24.20;42.68;100612.64;1725827;83;21236;-66
2021/05/31 13:04:30;;;;;;;1.45;1.35;;;;;;;24.06;42.37;100604.72;1724777;83;21322;-69
2021/05/31 13:07:13;;;;;;;4.28;1.25;;;;;;;23.83;42.97;100599.58;1725826;82;22175;-64
2021/05/31 13:09:46;;;;;;;1.72;1.30;;;;;;;23.64;43.53;100601.83;1706280;83;21339;-67
2021/05/31 13:12:20;;;;;;;1.95;1.32;;;;;;;23.56;44.07;100599.37;1726259;83;21228;-72
2021/05/31 13:14:54;;;;;;;2.35;1.02;;;;;;;23.65;43.76;100601.60;1725378;83;21269;-67
2021/05/31 13:17:32;;;;;;;3.67;1.30;;;;;;;23.66;43.37;100601.92;1725305;82;21331;-71
2021/05/31 13:20:11;;;;;;;4.28;1.80;;;;;;;23.72;43.52;100597.05;1725299;82;21613;-67
2021/05/31 13:26:55;;;;;;;1.55;1.30;;;;;;;23.82;43.31;100589.90;1726294;83;21133;-71
2021/05/31 13:29:28;;;;;;;1.20;1.10;;;;;;;23.82;43.41;100593.91;1726086;82;21937;-67
2021/05/31 13:32:06;;;;;;;1.42;1.30;;;;;;;23.76;43.40;100592.11;1726442;83;21232;-70
2021/05/31 13:34:39;;;;;;;1.37;1.25;;;;;;;23.67;43.58;100590.72;1725234;83;21181;-69
2021/05/31 13:37:14;;;;;;;1.47;1.30;;;;;;;23.62;43.62;100600.69;1725037;82;21165;-63
2021/05/31 13:43:44;;;;;;;1.93;1.53;;;;;;;23.47;43.65;100600.66;1726350;83;20700;-62
2021/05/31 13:46:19;;;;;;;4.85;1.60;;;;;;;23.28;44.31;100595.15;1704978;83;21595;-60
2021/05/31 13:48:52;;;;;;;5.67;1.27;;;;;;;23.22;44.08;100593.81;1726477;83;21468;-61
2021/05/31 13:51:27;;;;;;;1.42;1.30;;;;;;;23.24;44.63;100594.41;1726548;82;21443;-64
2021/05/31 13:54:00;;;;;;;1.50;1.30;;;;;;;23.36;44.43;100592.26;1725896;83;21220;-63
2021/05/31 14:04:54;;;;;;;1.82;1.50;;;;;;;23.31;43.58;100584.02;1725459;83;21168;-63
2021/05/31 14:11:38;;;;;;;4.85;1.60;;;;;;;23.27;43.00;100581.98;1724778;83;21336;-64
2021/05/31 14:14:13;;;;;;;1.60;1.50;;;;;;;23.12;43.46;100588.11;1725847;83;21193;-63
2021/05/31 14:16:46;;;;;;;5.45;1.47;;;;;;;23.05;43.76;100589.94;1731922;81;21335;-60
2021/05/31 14:19:21;;;;;;;1.87;1.62;;;;;;;23.06;44.27;100587.08;1726428;81;21359;-63
2021/05/31 14:21:54;;;;;;;3.45;1.70;;;;;;;23.10;44.17;100592.30;1728404;83;21288;-60
2021/05/31 14:24:30;;;;;;;2.40;1.77;;;;;;;23.14;44.16;100589.51;1740401;81;21642;-60
2021/05/31 14:27:05;;;;;;;5.28;2.05;;;;;;;23.18;44.31;100592.09;1745118;81;21204;-61
2021/05/31 14:29:39;;;;;;;6.95;2.27;;;;;;;23.20;44.59;100594.54;1731776;81;21323;-60
2021/05/31 14:32:15;;;;;;;7.85;3.70;;;;;;;23.20;44.20;100603.89;1710158;83;21185;-60
2021/05/31 14:34:48;;;;;;;8.73;3.92;;;;;;;23.11;44.33;100603.81;1740989;81;21280;-61
2021/05/31 14:37:22;;;;;;;5.42;3.55;;;;;;;22.97;44.64;100603.02;1763404;80;22007;-61
2021/05/31 14:39:55;;;;;;;2.35;1.77;;;;;;;22.86;45.40;100610.31;1764645;81;21178;-62
2021/05/31 14:42:28;;;;;;;4.55;2.80;;;;;;;22.71;45.00;100608.39;1763417;81;21321;-60
2021/05/31 14:45:02;;;;;;;3.65;2.02;;;;;;;22.54;45.35;100612.47;1764045;81;21319;-61
2021/05/31 14:47:35;;;;;;;4.70;1.82;;;;;;;22.42;45.16;100616.77;1768920;81;21273;-60
2021/05/31 14:50:09;;;;;;;1.95;1.72;;;;;;;22.18;45.08;100607.50;1768676;81;21272;-60
2021/05/31 14:52:45;;;;;;;8.68;2.55;;;;;;;22.01;45.32;100611.05;1767063;81;21130;-62
2021/05/31 14:55:18;;;;;;;3.50;2.00;;;;;;;21.93;45.43;100608.56;1768525;80;21292;-61
2021/05/31 14:57:51;;;;;;;11.20;2.95;;;;;;;21.87;45.44;100623.21;1769295;81;21241;-60
2021/05/31 15:00:29;;;;;;;3.72;2.20;;;;;;;21.79;45.43;100616.68;1768979;81;21229;-60
2021/05/31 15:03:00;;;;;;;7.30;4.05;;;;;;;21.69;45.74;100617.56;1766802;81;21721;-58
2021/05/31 15:05:33;;;;;;;4.37;2.58;;;;;;;21.61;46.22;100616.42;1768558;81;21281;-60
2021/05/31 15:08:06;;;;;;;3.17;2.17;;;;;;;21.50;46.20;100625.78;1769411;81;21255;-60
2021/05/31 15:10:41;;;;;;;3.90;2.50;;;;;;;21.38;46.69;100627.36;1767396;80;21145;-59
2021/05/31 15:13:13;;;;;;;3.10;2.25;;;;;;;21.21;46.92;100625.52;1769107;81;21284;-60
2021/05/31 15:15:46;;;;;;;;;;;;;;;21.09;47.34;100628.95;1770623;80;21364;-60
2021/05/31 15:18:22;;;;;;;2.80;2.60;;;;;;;20.97;47.83;100619.29;1767486;80;20185;-60
2021/05/31 15:20:56;;;;;;;6.35;3.10;;;;;;;20.85;48.25;100627.49;1747225;80;21169;-62
2021/05/31 15:23:29;;;;;;;4.17;2.70;;;;;;;20.78;48.93;100631.94;1740035;82;21956;-62
2021/05/31 15:26:02;;;;;;;3.33;3.00;;;;;;;20.64;49.45;100632.35;1741934;82;21252;-59
2021/05/31 15:28:39;;;;;;;5.15;3.30;;;;;;;20.51;49.94;100631.42;1744247;82;21177;-59
2021/05/31 15:31:14;;;;;;;3.77;3.20;;;;;;;20.41;50.47;100630.91;1742539;82;21311;-59
2021/05/31 15:33:47;;;;;;;4.87;3.60;;;;;;;20.30;50.86;100632.77;1744210;82;21450;-59
2021/05/31 15:36:20;;;;;;;4.10;3.43;;;;;;;20.18;51.00;100630.55;1743884;81;21181;-60
2021/05/31 15:38:53;;;;;;;5.22;3.17;;;;;;;20.07;51.32;100631.55;1744729;82;21161;-59
2021/05/31 15:41:26;;;;;;;6.10;3.42;;;;;;;19.96;51.48;100626.74;1744594;82;21279;-60
2021/05/31 15:43:59;;;;;;;4.53;3.83;;;;;;;19.87;51.89;100631.33;1746051;81;21694;-59
2021/05/31 15:46:32;;;;;;;5.33;3.87;;;;;;;19.81;52.27;100637.91;1719072;80;21303;-61
2021/05/31 15:49:07;;;;;;;3.40;3.08;;;;;;;19.74;52.31;100644.97;1755876;81;21288;-60
2021/05/31 15:51:40;;;;;;;4.58;3.47;;;;;;;19.66;52.51;100643.23;1752430;80;21134;-60
2021/05/31 15:54:12;;;;;;;3.63;3.27;;;;;;;19.60;53.00;100645.31;1767810;80;21248;-59
2021/05/31 15:56:45;;;;;;;5.15;3.27;;;;;;;19.53;53.12;100643.08;1765419;80;21245;-60
2021/05/31 15:59:19;;;;;;;5.92;3.42;;;;;;;19.47;53.22;100651.27;1767863;80;21166;-60
2021/05/31 16:01:52;;;;;;;4.80;3.55;;;;;;;19.41;53.51;100645.38;1761384;80;21200;-59
2021/05/31 16:04:25;;;;;;;;;;;;;;;19.35;53.67;100640.75;1769258;80;21506;-62
2021/05/31 16:06:57;;;;;;;4.28;3.60;;;;;;;19.27;53.83;100642.69;1760257;80;20173;-59
2021/05/31 16:09:31;;;;;;;9.03;3.70;;;;;;;19.16;54.20;100642.62;1735795;81;21228;-59
2021/05/31 16:12:06;;;;;;;6.35;3.67;;;;;;;19.09;54.29;100646.18;1725269;83;21555;-61
2021/05/31 16:14:40;;;;;;;5.65;3.67;;;;;;;19.00;54.48;100646.78;1730262;83;21256;-60
2021/05/31 16:17:14;;;;;;;4.03;3.67;;;;;;;18.94;54.45;100642.17;1741916;81;21531;-59
2021/05/31 16:19:50;;;;;;;4.97;3.60;;;;;;;18.87;54.73;100638.59;1760458;80;21287;-59
2021/05/31 16:22:28;;;;;;;4.12;3.70;;;;;;;18.79;54.98;100637.36;1767332;80;21296;-61
2021/05/31 16:25:11;;;;;;;6.87;3.90;;;;;;;18.69;55.38;100627.50;1767883;81;21284;-59
2021/05/31 16:27:34;;;;;;;7.70;4.25;;;;;;;18.61;55.90;100635.02;1765630;81;21594;-59
2021/05/31 16:30:08;;;;;;;5.07;4.00;;;;;;;18.53;56.41;100637.73;1770152;81;21292;-59
2021/05/31 16:32:41;;;;;;;5.70;4.22;;;;;;;18.44;56.42;100637.44;1767804;81;21319;-59
2021/05/31 16:35:14;;;;;;;4.80;4.23;;;;;;;18.35;56.59;100633.70;1769773;81;22039;-61
2021/05/31 16:37:47;;;;;;;6.40;4.40;;;;;;;18.25;56.62;100631.78;1767955;81;21197;-59
2021/05/31 16:40:21;;;;;;;6.25;4.30;;;;;;;18.17;56.97;100636.13;1768134;81;21205;-59
2021/05/31 16:42:55;;;;;;;4.95;4.25;;;;;;;18.10;57.18;100645.78;1768332;81;21208;-61
2021/05/31 16:45:28;;;;;;;6.20;4.10;;;;;;;18.07;57.40;100647.48;1768104;81;22112;-59
2021/05/31 16:48:01;;;;;;;6.50;4.62;;;;;;;18.04;57.47;100642.53;1766858;81;21272;-59
2021/05/31 16:50:34;;;;;;;4.43;4.03;;;;;;;17.99;57.64;100644.04;1768325;81;21295;-59
2021/05/31 16:53:07;;;;;;;5.08;4.03;;;;;;;17.97;57.87;100644.72;1767835;81;22300;-61
2021/05/31 16:55:40;;;;;;;5.80;4.87;;;;;;;17.90;58.01;100639.79;1767794;81;22030;-61
2021/05/31 16:58:13;;;;;;;5.12;4.35;;;;;;;17.85;58.21;100642.13;1766785;81;22044;-59
2021/05/31 17:00:46;;;;;;;6.20;4.60;;;;;;;17.80;58.57;100647.12;1735725;81;22019;-59
2021/05/31 17:03:19;;;;;;;6.33;4.60;;;;;;;17.76;58.89;100647.14;1726007;83;21256;-59
2021/05/31 17:05:52;;;;;;;6.40;4.70;;;;;;;17.70;59.11;100647.82;1741522;80;21446;-60
2021/05/31 17:08:25;;;;;;;;;;;;;;;17.66;59.27;100656.63;1742539;80;21181;-59
2021/05/31 17:19:20;;;;;;;6.45;5.35;;;;;;;17.47;59.69;100674.20;1726839;82;21209;-59
2021/05/31 17:21:51;;;;;;;7.03;5.20;;;;;;;17.43;59.85;100675.02;1724552;82;21236;-59
2021/05/31 17:24:24;;;;;;;9.25;4.97;;;;;;;17.41;59.97;100689.45;1727588;82;21271;-59
2021/05/31 17:26:57;;;;;;;7.12;5.47;;;;;;;17.36;59.71;100694.42;1728816;83;21182;-60
2021/05/31 17:29:35;;;;;;;7.85;5.60;;;;;;;17.30;59.60;100685.33;1725426;83;21374;-59
2021/05/31 17:35:00;;;;;;;10.15;5.70;;;;;;;17.19;59.94;100684.86;1725286;83;21228;-60
2021/05/31 17:37:33;;;;;;;6.80;5.37;;;;;;;17.07;60.14;100675.13;1746834;79;21323;-60
2021/05/31 17:40:08;;;;;;;6.33;5.28;;;;;;;16.99;60.37;100672.97;1793671;80;21205;-60
2021/05/31 17:42:52;;;;;;;7.62;5.45;;;;;;;16.91;60.58;100674.31;1783748;80;21142;-61
2021/05/31 17:45:25;;;;;;;;;;;;;;;16.84;60.91;100671.00;1771789;81;21826;-59
2021/05/31 17:47:59;;;;;;;10.40;5.45;;;;;;;16.79;61.09;100673.80;1755678;80;20268;-60
2021/05/31 17:50:33;;;;;;;8.70;5.17;;;;;;;16.74;61.34;100681.43;1745561;81;21200;-60
2021/05/31 17:53:14;;;;;;;7.58;5.53;;;;;;;16.72;61.60;100681.58;1735158;81;21268;-60
2021/05/31 17:55:47;;;;;;;6.10;5.50;;;;;;;16.70;61.73;100681.41;1728490;81;21438;-59
2021/05/31 17:58:21;;;;;;;5.73;5.07;;;;;;;16.67;61.86;100688.37;1755374;81;21328;-60
2021/05/31 18:00:56;;;;;;;7.37;5.33;;;;;;;16.64;61.94;100685.55;1766005;80;21206;-60
2021/05/31 18:03:30;;;;;;;6.30;5.70;;;;;;;16.60;62.05;100686.85;1765644;81;22129;-59
2021/05/31 18:06:03;;;;;;;6.40;5.47;;;;;;;16.56;62.18;100689.99;1760980;81;21177;-59
2021/05/31 18:08:36;;;;;;;6.53;5.40;;;;;;;16.51;62.25;100690.48;1770236;81;21824;-59
2021/05/31 18:11:09;;;;;;;8.05;5.17;;;;;;;16.47;62.34;100683.02;1769496;81;21339;-60
2021/05/31 18:13:43;;;;;;;5.92;4.50;;;;;;;16.47;62.43;100685.17;1770718;81;21264;-59
2021/05/31 18:16:17;;;;;;;5.65;5.05;;;;;;;16.46;62.43;100695.40;1769994;80;21535;-60
2021/05/31 18:18:50;;;;;;;6.47;5.23;;;;;;;16.46;62.47;100700.69;1770150;81;21315;-59
2021/05/31 18:21:24;;;;;;;6.75;5.53;;;;;;;16.46;62.49;100702.01;1769609;81;21264;-60
2021/05/31 18:23:57;;;;;;;;;;;;;;;16.43;62.86;100696.23;1772747;80;21276;-59